Terminal Aerodrome Forecast
Issued by NWS Cleveland, OH

Current Version | Previous Version | Text Only | Print | Product List | Glossary On
Versions: 1 2 3 4 5 6 7 8 9 10 11 12 13 14 15 16
000
FTUS41 KCLE 072340
TAFYNG
TAF
KYNG 072340Z 0800/0824 30008KT P6SM VCTS OVC050CB
      TEMPO 0800/0802 3SM -TSRA BR SCT007 OVC035CB
     FM080400 29007KT 4SM BR OVC007
     FM081900 02006KT P6SM OVC050=

USA.gov is the U.S. government's official web portal to all federal, state and local government web resources and services.